Fennimore, Wisconsin
Current Conditions -  °F | °C
As of 2:53 AM on Sunday 23 Nov 2014 (Local Time) from KOVS Reporting Station
Haze Haze  
Wind Chill: 51°   Ceiling: 1000
Heat Index: 51°   Visibility: 4mi
Dew Point: 48°   Wind: 10mph
Humidity: 89%   Direction: 190°S
Pressure: 29.65"   Gusts: 18mph
Location:  42.98°N, 90.66°W
Report Text: KOVS 230853Z AUTO 19009G16KT 4SM BR OVC010 11/09 A2965 RMK AO2 CIG 008V012 SLP043 T01060089 58013
Loading
Personal Weather Stations






























Interactive Weather Map New forecast layout! Learn more

10-Day Weather Forecast

Advertisements
Track Severe Weather on mobile